KSWF

Stewart International Airport

New York, New York, USA
KSWF 172005Z 1720/1824 29012KT P6SM BKN040 FM172200 29009KT P6SM BKN040 FM172300 29007KT P6SM BKN040 FM180400 29005KT P6SM SCT040 SCT120 FM180800 VRB03KT P6SM BKN120 FM181100 VRB03KT P6SM FEW050 BKN090 FM181800 18004KT P6SM VCSH SCT025 BKN050 FM182000 18004KT 6SM -SN OVC035 AMD NOT SKED
Issued Valid From Valid To
Nov-17 @ 20:05 UTC
(2 hours ago)
Nov-17 @ 20:00 UTC
(2 hours ago)
Nov-19 @ 00:00 UTC
(-1 days ago)
Nov-17 @ 20:00 to Nov-17 @ 22:00
KSWF 172005Z 1720/1824 29012KT P6SM BKN040
Wind Visibility Clouds
290° at 12 knots Greater than 6 miles
  • Broken at 4,000' AGL
From Nov-17 @ 22:00 to Nov-17 @ 23:00
FM172200 29009KT P6SM BKN040
Wind Visibility Clouds
290° at 9 knots Greater than 6 miles
  • Broken at 4,000' AGL
From Nov-17 @ 23:00 to Nov-18 @ 04:00
FM172300 29007KT P6SM BKN040
Wind Visibility Clouds
290° at 7 knots Greater than 6 miles
  • Broken at 4,000' AGL
From Nov-18 @ 04:00 to Nov-18 @ 08:00
FM180400 29005KT P6SM SCT040 SCT120
Wind Visibility Clouds
290° at 5 knots Greater than 6 miles
  • Scattered at 4,000' AGL
  • Scattered at 12,000' AGL
From Nov-18 @ 08:00 to Nov-18 @ 11:00
FM180800 VRB03KT P6SM BKN120
Wind Visibility Clouds
Variable at 3 knots Greater than 6 miles
  • Broken at 12,000' AGL
From Nov-18 @ 11:00 to Nov-18 @ 18:00
FM181100 VRB03KT P6SM FEW050 BKN090
Wind Visibility Clouds
Variable at 3 knots Greater than 6 miles
  • Few at 5,000' AGL
  • Broken at 9,000' AGL
From Nov-18 @ 18:00 to Nov-18 @ 20:00
FM181800 18004KT P6SM VCSH SCT025 BKN050
Wind Visibility Clouds
180° at 4 knots Greater than 6 miles
  • Scattered at 2,500' AGL
  • Broken at 5,000' AGL
From Nov-18 @ 20:00 to Nov-19 @ 00:00
FM182000 18004KT 6SM -SN OVC035 AMD NOT SKED
Wind Visibility Clouds Conditions
180° at 4 knots 6 miles
  • Overcast at 3,500' AGL
  • Light Snow
KSWF 172005Z 1720/1824 29012KT P6SM BKN040 FM172200 29009KT P6SM BKN040 FM172300 29007KT P6SM BKN040 FM180400 29005KT P6SM SCT040 SCT120 FM180800 VRB03KT P6SM BKN120 FM181100 VRB03KT P6SM FEW050 BKN090 FM181800 18004KT P6SM VCSH SCT025 BKN050 FM182000 18004KT 6SM -SN OVC035 AMD NOT SKED
Issued Nov-17 @ 20:05 UTC
(2 hours ago)
Valid From Nov-17 @ 20:00 UTC
(2 hours ago)
Valid To Nov-19 @ 00:00 UTC
(-1 days ago)
Nov-17 @ 20:00 - Nov-17 @ 22:00
Wind Visibility
290° at 12 knots Greater than 6 miles
Clouds
  • Broken at 4,000' AGL
From Nov-17 @ 22:00 - Nov-17 @ 23:00
Wind Visibility
290° at 9 knots Greater than 6 miles
Clouds
  • Broken at 4,000' AGL
From Nov-17 @ 23:00 - Nov-18 @ 04:00
Wind Visibility
290° at 7 knots Greater than 6 miles
Clouds
  • Broken at 4,000' AGL
From Nov-18 @ 04:00 - Nov-18 @ 08:00
Wind Visibility
290° at 5 knots Greater than 6 miles
Clouds
  • Scattered at 4,000' AGL
  • Scattered at 12,000' AGL
From Nov-18 @ 08:00 - Nov-18 @ 11:00
Wind Visibility
Variable at 3 knots Greater than 6 miles
Clouds
  • Broken at 12,000' AGL
From Nov-18 @ 11:00 - Nov-18 @ 18:00
Wind Visibility
Variable at 3 knots Greater than 6 miles
Clouds
  • Few at 5,000' AGL
  • Broken at 9,000' AGL
From Nov-18 @ 18:00 - Nov-18 @ 20:00
Wind Visibility
180° at 4 knots Greater than 6 miles
Clouds
  • Scattered at 2,500' AGL
  • Broken at 5,000' AGL
From Nov-18 @ 20:00 - Nov-19 @ 00:00
Wind Visibility
180° at 4 knots 6 miles
Clouds
  • Overcast at 3,500' AGL
Conditions
  • Light Snow